sensor_id;sensor_type;location;lat;lon;timestamp;P1;durP1;ratioP1;P2;durP2;ratioP2
17790;SDS011;9019;48.132;-1.210;2023-05-08T00:01:50;17.77;;;13.90;;
17790;SDS011;9019;48.132;-1.210;2023-05-08T00:04:18;8.47;;;5.60;;
17790;SDS011;9019;48.132;-1.210;2023-05-08T00:06:45;12.17;;;5.13;;
17790;SDS011;9019;48.132;-1.210;2023-05-08T00:09:12;9.90;;;5.13;;
17790;SDS011;9019;48.132;-1.210;2023-05-08T00:11:39;9.17;;;5.00;;
17790;SDS011;9019;48.132;-1.210;2023-05-08T00:14:06;11.27;;;5.10;;
17790;SDS011;9019;48.132;-1.210;2023-05-08T00:16:34;13.17;;;5.40;;
17790;SDS011;9019;48.132;-1.210;2023-05-08T00:19:02;9.60;;;4.80;;
17790;SDS011;9019;48.132;-1.210;2023-05-08T00:21:29;10.53;;;5.30;;
17790;SDS011;9019;48.132;-1.210;2023-05-08T00:23:57;12.97;;;5.33;;
17790;SDS011;9019;48.132;-1.210;2023-05-08T00:26:24;11.13;;;4.87;;
17790;SDS011;9019;48.132;-1.210;2023-05-08T00:28:51;10.37;;;4.90;;
17790;SDS011;9019;48.132;-1.210;2023-05-08T00:31:18;8.67;;;5.07;;
17790;SDS011;9019;48.132;-1.210;2023-05-08T00:33:45;11.87;;;5.57;;
17790;SDS011;9019;48.132;-1.210;2023-05-08T00:36:14;13.60;;;5.27;;
17790;SDS011;9019;48.132;-1.210;2023-05-08T00:38:41;14.27;;;5.30;;
17790;SDS011;9019;48.132;-1.210;2023-05-08T00:41:08;9.97;;;4.83;;
17790;SDS011;9019;48.132;-1.210;2023-05-08T00:43:36;8.97;;;5.00;;
17790;SDS011;9019;48.132;-1.210;2023-05-08T00:46:04;8.47;;;4.90;;
17790;SDS011;9019;48.132;-1.210;2023-05-08T00:48:33;9.93;;;5.33;;
17790;SDS011;9019;48.132;-1.210;2023-05-08T00:51:01;11.60;;;5.50;;
17790;SDS011;9019;48.132;-1.210;2023-05-08T00:53:32;8.10;;;5.00;;
17790;SDS011;9019;48.132;-1.210;2023-05-08T00:56:01;12.93;;;5.13;;
17790;SDS011;9019;48.132;-1.210;2023-05-08T00:58:29;9.17;;;5.63;;
17790;SDS011;9019;48.132;-1.210;2023-05-08T01:00:57;13.43;;;5.77;;
17790;SDS011;9019;48.132;-1.210;2023-05-08T01:03:25;8.80;;;5.00;;
17790;SDS011;9019;48.132;-1.210;2023-05-08T01:05:53;8.83;;;6.00;;
17790;SDS011;9019;48.132;-1.210;2023-05-08T01:08:20;8.03;;;5.07;;
17790;SDS011;9019;48.132;-1.210;2023-05-08T01:10:51;11.90;;;5.57;;
17790;SDS011;9019;48.132;-1.210;2023-05-08T01:13:23;11.03;;;5.23;;
17790;SDS011;9019;48.132;-1.210;2023-05-08T01:15:54;7.93;;;4.50;;
17790;SDS011;9019;48.132;-1.210;2023-05-08T01:18:25;13.33;;;5.40;;
17790;SDS011;9019;48.132;-1.210;2023-05-08T01:20:55;14.17;;;5.20;;
17790;SDS011;9019;48.132;-1.210;2023-05-08T01:23:35;8.83;;;4.57;;
17790;SDS011;9019;48.132;-1.210;2023-05-08T01:26:22;7.87;;;4.83;;
17790;SDS011;9019;48.132;-1.210;2023-05-08T01:29:02;10.27;;;5.50;;
17790;SDS011;9019;48.132;-1.210;2023-05-08T01:31:42;7.93;;;4.87;;
17790;SDS011;9019;48.132;-1.210;2023-05-08T01:34:16;7.57;;;4.90;;
17790;SDS011;9019;48.132;-1.210;2023-05-08T01:36:47;7.63;;;5.07;;
17790;SDS011;9019;48.132;-1.210;2023-05-08T01:39:16;9.57;;;5.07;;
17790;SDS011;9019;48.132;-1.210;2023-05-08T01:41:46;10.93;;;5.37;;
17790;SDS011;9019;48.132;-1.210;2023-05-08T01:44:15;13.03;;;5.53;;
17790;SDS011;9019;48.132;-1.210;2023-05-08T01:46:46;10.87;;;5.10;;
17790;SDS011;9019;48.132;-1.210;2023-05-08T01:49:16;13.70;;;5.50;;
17790;SDS011;9019;48.132;-1.210;2023-05-08T01:51:48;8.33;;;4.87;;
17790;SDS011;9019;48.132;-1.210;2023-05-08T01:54:20;7.97;;;5.07;;
17790;SDS011;9019;48.132;-1.210;2023-05-08T01:56:49;12.03;;;5.43;;
17790;SDS011;9019;48.132;-1.210;2023-05-08T01:59:20;10.67;;;5.33;;
17790;SDS011;9019;48.132;-1.210;2023-05-08T02:01:48;7.53;;;4.80;;
17790;SDS011;9019;48.132;-1.210;2023-05-08T02:04:18;11.43;;;5.60;;
17790;SDS011;9019;48.132;-1.210;2023-05-08T02:06:45;8.63;;;5.00;;
17790;SDS011;9019;48.132;-1.210;2023-05-08T02:09:13;12.33;;;5.17;;
17790;SDS011;9019;48.132;-1.210;2023-05-08T02:11:41;9.90;;;4.93;;
17790;SDS011;9019;48.132;-1.210;2023-05-08T02:14:09;9.73;;;5.10;;
17790;SDS011;9019;48.132;-1.210;2023-05-08T02:16:37;9.53;;;5.20;;
17790;SDS011;9019;48.132;-1.210;2023-05-08T02:19:05;13.17;;;5.57;;
17790;SDS011;9019;48.132;-1.210;2023-05-08T02:21:35;9.30;;;5.27;;
17790;SDS011;9019;48.132;-1.210;2023-05-08T02:24:03;10.40;;;5.93;;
17790;SDS011;9019;48.132;-1.210;2023-05-08T02:26:30;9.67;;;5.27;;
17790;SDS011;9019;48.132;-1.210;2023-05-08T02:28:58;14.23;;;5.63;;
17790;SDS011;9019;48.132;-1.210;2023-05-08T02:31:26;6.97;;;5.17;;
17790;SDS011;9019;48.132;-1.210;2023-05-08T02:33:53;10.07;;;5.10;;
17790;SDS011;9019;48.132;-1.210;2023-05-08T02:36:21;10.97;;;5.10;;
17790;SDS011;9019;48.132;-1.210;2023-05-08T02:38:51;11.83;;;5.10;;
17790;SDS011;9019;48.132;-1.210;2023-05-08T02:41:20;11.13;;;5.27;;
17790;SDS011;9019;48.132;-1.210;2023-05-08T02:43:47;9.03;;;4.60;;
17790;SDS011;9019;48.132;-1.210;2023-05-08T02:46:17;9.60;;;5.30;;
17790;SDS011;9019;48.132;-1.210;2023-05-08T02:48:46;12.87;;;5.20;;
17790;SDS011;9019;48.132;-1.210;2023-05-08T02:51:17;8.07;;;5.30;;
17790;SDS011;9019;48.132;-1.210;2023-05-08T02:53:51;9.90;;;5.53;;
17790;SDS011;9019;48.132;-1.210;2023-05-08T02:56:25;9.33;;;5.13;;
17790;SDS011;9019;48.132;-1.210;2023-05-08T02:58:58;10.53;;;5.50;;
17790;SDS011;9019;48.132;-1.210;2023-05-08T03:01:28;9.10;;;5.10;;
17790;SDS011;9019;48.132;-1.210;2023-05-08T03:03:58;8.40;;;4.80;;
17790;SDS011;9019;48.132;-1.210;2023-05-08T03:06:27;9.80;;;4.87;;
17790;SDS011;9019;48.132;-1.210;2023-05-08T03:08:57;8.03;;;4.87;;
17790;SDS011;9019;48.132;-1.210;2023-05-08T03:11:31;8.57;;;4.90;;
17790;SDS011;9019;48.132;-1.210;2023-05-08T03:13:59;11.30;;;5.57;;
17790;SDS011;9019;48.132;-1.210;2023-05-08T03:16:27;11.17;;;5.60;;
17790;SDS011;9019;48.132;-1.210;2023-05-08T03:18:58;8.77;;;5.10;;
17790;SDS011;9019;48.132;-1.210;2023-05-08T03:21:27;8.67;;;4.77;;
17790;SDS011;9019;48.132;-1.210;2023-05-08T03:23:55;9.73;;;5.17;;
17790;SDS011;9019;48.132;-1.210;2023-05-08T03:26:23;9.33;;;5.20;;
17790;SDS011;9019;48.132;-1.210;2023-05-08T03:28:51;7.83;;;4.57;;
17790;SDS011;9019;48.132;-1.210;2023-05-08T03:31:20;7.63;;;4.80;;
17790;SDS011;9019;48.132;-1.210;2023-05-08T03:33:49;8.87;;;4.97;;
17790;SDS011;9019;48.132;-1.210;2023-05-08T03:36:18;12.03;;;5.07;;
17790;SDS011;9019;48.132;-1.210;2023-05-08T03:38:46;9.13;;;4.73;;
17790;SDS011;9019;48.132;-1.210;2023-05-08T03:41:14;9.97;;;5.27;;
17790;SDS011;9019;48.132;-1.210;2023-05-08T03:43:41;11.57;;;4.73;;
17790;SDS011;9019;48.132;-1.210;2023-05-08T03:46:10;10.47;;;5.23;;
17790;SDS011;9019;48.132;-1.210;2023-05-08T03:48:38;11.57;;;5.60;;
17790;SDS011;9019;48.132;-1.210;2023-05-08T03:51:05;12.60;;;5.80;;
17790;SDS011;9019;48.132;-1.210;2023-05-08T03:53:33;6.90;;;5.23;;
17790;SDS011;9019;48.132;-1.210;2023-05-08T03:56:00;11.30;;;5.43;;
17790;SDS011;9019;48.132;-1.210;2023-05-08T03:58:30;12.17;;;5.17;;
17790;SDS011;9019;48.132;-1.210;2023-05-08T04:01:00;11.37;;;5.13;;
17790;SDS011;9019;48.132;-1.210;2023-05-08T04:03:40;9.57;;;5.33;;
17790;SDS011;9019;48.132;-1.210;2023-05-08T04:06:10;11.53;;;5.47;;
17790;SDS011;9019;48.132;-1.210;2023-05-08T04:08:38;8.97;;;5.30;;
17790;SDS011;9019;48.132;-1.210;2023-05-08T04:11:08;9.07;;;5.30;;
17790;SDS011;9019;48.132;-1.210;2023-05-08T04:13:41;11.13;;;5.37;;
17790;SDS011;9019;48.132;-1.210;2023-05-08T04:16:11;13.00;;;5.57;;
17790;SDS011;9019;48.132;-1.210;2023-05-08T04:18:42;10.00;;;5.60;;
17790;SDS011;9019;48.132;-1.210;2023-05-08T04:21:11;9.77;;;4.97;;
17790;SDS011;9019;48.132;-1.210;2023-05-08T04:23:41;11.27;;;5.20;;
17790;SDS011;9019;48.132;-1.210;2023-05-08T04:26:10;9.00;;;5.17;;
17790;SDS011;9019;48.132;-1.210;2023-05-08T04:28:37;8.27;;;5.63;;
17790;SDS011;9019;48.132;-1.210;2023-05-08T04:31:05;7.70;;;4.87;;
17790;SDS011;9019;48.132;-1.210;2023-05-08T04:33:32;10.33;;;5.57;;
17790;SDS011;9019;48.132;-1.210;2023-05-08T04:36:02;11.07;;;5.93;;
17790;SDS011;9019;48.132;-1.210;2023-05-08T04:38:29;10.03;;;5.50;;
17790;SDS011;9019;48.132;-1.210;2023-05-08T04:40:56;10.53;;;4.93;;
17790;SDS011;9019;48.132;-1.210;2023-05-08T04:43:23;11.17;;;5.33;;
17790;SDS011;9019;48.132;-1.210;2023-05-08T04:45:50;11.53;;;5.63;;
17790;SDS011;9019;48.132;-1.210;2023-05-08T04:48:17;8.23;;;4.77;;
17790;SDS011;9019;48.132;-1.210;2023-05-08T04:50:45;7.73;;;4.57;;
17790;SDS011;9019;48.132;-1.210;2023-05-08T04:53:13;6.37;;;4.90;;
17790;SDS011;9019;48.132;-1.210;2023-05-08T04:55:40;7.03;;;4.37;;
17790;SDS011;9019;48.132;-1.210;2023-05-08T04:58:09;7.80;;;5.00;;
17790;SDS011;9019;48.132;-1.210;2023-05-08T05:00:36;7.77;;;4.90;;
17790;SDS011;9019;48.132;-1.210;2023-05-08T05:03:03;8.57;;;4.83;;
17790;SDS011;9019;48.132;-1.210;2023-05-08T05:05:30;7.43;;;4.20;;
17790;SDS011;9019;48.132;-1.210;2023-05-08T05:07:57;7.33;;;4.43;;
17790;SDS011;9019;48.132;-1.210;2023-05-08T05:10:26;7.83;;;4.50;;
17790;SDS011;9019;48.132;-1.210;2023-05-08T05:12:53;7.67;;;4.20;;
17790;SDS011;9019;48.132;-1.210;2023-05-08T05:15:20;6.63;;;4.40;;
17790;SDS011;9019;48.132;-1.210;2023-05-08T05:17:47;6.03;;;3.73;;
17790;SDS011;9019;48.132;-1.210;2023-05-08T05:20:15;7.33;;;4.20;;
17790;SDS011;9019;48.132;-1.210;2023-05-08T05:22:42;6.33;;;4.30;;
17790;SDS011;9019;48.132;-1.210;2023-05-08T05:25:09;8.37;;;4.23;;
17790;SDS011;9019;48.132;-1.210;2023-05-08T05:27:38;5.87;;;4.57;;
17790;SDS011;9019;48.132;-1.210;2023-05-08T05:30:05;6.33;;;4.57;;
17790;SDS011;9019;48.132;-1.210;2023-05-08T05:32:33;6.53;;;4.20;;
17790;SDS011;9019;48.132;-1.210;2023-05-08T05:35:00;6.37;;;4.70;;
17790;SDS011;9019;48.132;-1.210;2023-05-08T05:37:27;5.63;;;4.13;;
17790;SDS011;9019;48.132;-1.210;2023-05-08T05:39:54;6.70;;;4.43;;
17790;SDS011;9019;48.132;-1.210;2023-05-08T05:42:21;5.90;;;4.40;;
17790;SDS011;9019;48.132;-1.210;2023-05-08T05:44:50;9.80;;;5.13;;
17790;SDS011;9019;48.132;-1.210;2023-05-08T05:47:17;8.67;;;4.73;;
17790;SDS011;9019;48.132;-1.210;2023-05-08T05:49:44;9.20;;;4.50;;
17790;SDS011;9019;48.132;-1.210;2023-05-08T05:52:11;8.57;;;4.30;;
17790;SDS011;9019;48.132;-1.210;2023-05-08T05:54:38;7.70;;;4.10;;
17790;SDS011;9019;48.132;-1.210;2023-05-08T05:57:06;8.47;;;4.73;;
17790;SDS011;9019;48.132;-1.210;2023-05-08T05:59:33;5.47;;;4.33;;
17790;SDS011;9019;48.132;-1.210;2023-05-08T06:02:02;8.23;;;4.60;;
17790;SDS011;9019;48.132;-1.210;2023-05-08T06:04:29;7.63;;;4.40;;
17790;SDS011;9019;48.132;-1.210;2023-05-08T06:06:56;8.47;;;4.33;;
17790;SDS011;9019;48.132;-1.210;2023-05-08T06:09:23;8.90;;;4.37;;
17790;SDS011;9019;48.132;-1.210;2023-05-08T06:11:51;6.70;;;4.13;;
17790;SDS011;9019;48.132;-1.210;2023-05-08T06:14:18;8.17;;;4.03;;
17790;SDS011;9019;48.132;-1.210;2023-05-08T06:16:45;6.53;;;4.10;;
17790;SDS011;9019;48.132;-1.210;2023-05-08T06:19:14;7.10;;;4.33;;
17790;SDS011;9019;48.132;-1.210;2023-05-08T06:21:41;7.33;;;4.20;;
17790;SDS011;9019;48.132;-1.210;2023-05-08T06:24:08;6.23;;;4.07;;
17790;SDS011;9019;48.132;-1.210;2023-05-08T06:26:35;5.30;;;4.13;;
17790;SDS011;9019;48.132;-1.210;2023-05-08T06:29:02;11.70;;;4.83;;
17790;SDS011;9019;48.132;-1.210;2023-05-08T06:31:30;5.87;;;4.40;;
17790;SDS011;9019;48.132;-1.210;2023-05-08T06:33:57;6.20;;;4.17;;
17790;SDS011;9019;48.132;-1.210;2023-05-08T06:36:26;7.10;;;4.43;;
17790;SDS011;9019;48.132;-1.210;2023-05-08T06:38:53;7.70;;;4.63;;
17790;SDS011;9019;48.132;-1.210;2023-05-08T06:41:20;8.20;;;4.47;;
17790;SDS011;9019;48.132;-1.210;2023-05-08T06:43:47;9.17;;;4.73;;
17790;SDS011;9019;48.132;-1.210;2023-05-08T06:46:14;7.10;;;4.20;;
17790;SDS011;9019;48.132;-1.210;2023-05-08T06:48:42;7.97;;;4.40;;
17790;SDS011;9019;48.132;-1.210;2023-05-08T06:51:09;7.37;;;4.57;;
17790;SDS011;9019;48.132;-1.210;2023-05-08T06:53:37;7.10;;;4.40;;
17790;SDS011;9019;48.132;-1.210;2023-05-08T06:56:05;7.33;;;4.23;;
17790;SDS011;9019;48.132;-1.210;2023-05-08T06:58:32;7.57;;;4.73;;
17790;SDS011;9019;48.132;-1.210;2023-05-08T07:00:59;9.03;;;4.50;;
17790;SDS011;9019;48.132;-1.210;2023-05-08T07:03:27;7.63;;;4.53;;
17790;SDS011;9019;48.132;-1.210;2023-05-08T07:05:54;8.40;;;5.10;;
17790;SDS011;9019;48.132;-1.210;2023-05-08T07:08:21;5.50;;;4.40;;
17790;SDS011;9019;48.132;-1.210;2023-05-08T07:10:50;7.93;;;4.50;;
17790;SDS011;9019;48.132;-1.210;2023-05-08T07:13:17;7.70;;;4.43;;
17790;SDS011;9019;48.132;-1.210;2023-05-08T07:15:46;7.27;;;4.70;;
17790;SDS011;9019;48.132;-1.210;2023-05-08T07:18:13;6.33;;;4.67;;
17790;SDS011;9019;48.132;-1.210;2023-05-08T07:20:40;10.63;;;4.80;;
17790;SDS011;9019;48.132;-1.210;2023-05-08T07:23:07;8.17;;;4.83;;
17790;SDS011;9019;48.132;-1.210;2023-05-08T07:25:35;6.20;;;5.00;;
17790;SDS011;9019;48.132;-1.210;2023-05-08T07:28:04;7.83;;;4.97;;
17790;SDS011;9019;48.132;-1.210;2023-05-08T07:30:32;8.80;;;4.97;;
17790;SDS011;9019;48.132;-1.210;2023-05-08T07:32:59;12.43;;;5.17;;
17790;SDS011;9019;48.132;-1.210;2023-05-08T07:35:28;8.07;;;4.97;;
17790;SDS011;9019;48.132;-1.210;2023-05-08T07:37:55;7.83;;;5.00;;
17790;SDS011;9019;48.132;-1.210;2023-05-08T07:52:12;9.10;;;5.27;;
17790;SDS011;9019;48.132;-1.210;2023-05-08T07:54:40;9.40;;;5.20;;
17790;SDS011;9019;48.132;-1.210;2023-05-08T07:57:07;13.13;;;6.23;;
17790;SDS011;9019;48.132;-1.210;2023-05-08T07:59:35;12.23;;;5.50;;
17790;SDS011;9019;48.132;-1.210;2023-05-08T08:02:02;8.17;;;5.67;;
17790;SDS011;9019;48.132;-1.210;2023-05-08T08:04:29;8.80;;;5.77;;
17790;SDS011;9019;48.132;-1.210;2023-05-08T08:06:56;9.67;;;5.90;;
17790;SDS011;9019;48.132;-1.210;2023-05-08T08:09:25;9.23;;;5.90;;
17790;SDS011;9019;48.132;-1.210;2023-05-08T08:11:52;11.80;;;6.50;;
17790;SDS011;9019;48.132;-1.210;2023-05-08T08:14:19;9.83;;;6.43;;
17790;SDS011;9019;48.132;-1.210;2023-05-08T08:16:47;8.50;;;6.00;;
17790;SDS011;9019;48.132;-1.210;2023-05-08T08:19:14;11.70;;;6.57;;
17790;SDS011;9019;48.132;-1.210;2023-05-08T08:21:41;12.03;;;7.30;;
17790;SDS011;9019;48.132;-1.210;2023-05-08T08:24:08;13.30;;;7.20;;
17790;SDS011;9019;48.132;-1.210;2023-05-08T08:26:37;12.97;;;7.17;;
17790;SDS011;9019;48.132;-1.210;2023-05-08T08:29:04;11.77;;;6.80;;
17790;SDS011;9019;48.132;-1.210;2023-05-08T08:31:31;12.53;;;7.67;;
17790;SDS011;9019;48.132;-1.210;2023-05-08T08:33:59;11.83;;;7.33;;
17790;SDS011;9019;48.132;-1.210;2023-05-08T08:36:26;10.90;;;7.47;;
17790;SDS011;9019;48.132;-1.210;2023-05-08T08:38:53;9.57;;;7.03;;
17790;SDS011;9019;48.132;-1.210;2023-05-08T08:41:20;11.17;;;6.97;;
17790;SDS011;9019;48.132;-1.210;2023-05-08T08:43:49;10.37;;;7.20;;
17790;SDS011;9019;48.132;-1.210;2023-05-08T08:46:16;11.40;;;6.70;;
17790;SDS011;9019;48.132;-1.210;2023-05-08T08:48:46;9.83;;;7.30;;
17790;SDS011;9019;48.132;-1.210;2023-05-08T08:51:13;10.73;;;6.87;;
17790;SDS011;9019;48.132;-1.210;2023-05-08T08:53:45;10.07;;;6.53;;
17790;SDS011;9019;48.132;-1.210;2023-05-08T08:56:15;10.13;;;7.07;;
17790;SDS011;9019;48.132;-1.210;2023-05-08T08:58:45;13.87;;;6.90;;
17790;SDS011;9019;48.132;-1.210;2023-05-08T09:01:16;10.30;;;6.95;;
17790;SDS011;9019;48.132;-1.210;2023-05-08T09:03:44;10.77;;;7.10;;
17790;SDS011;9019;48.132;-1.210;2023-05-08T09:06:11;10.80;;;6.57;;
17790;SDS011;9019;48.132;-1.210;2023-05-08T09:08:39;8.70;;;6.33;;
17790;SDS011;9019;48.132;-1.210;2023-05-08T09:11:07;11.93;;;6.15;;
17790;SDS011;9019;48.132;-1.210;2023-05-08T09:13:34;8.70;;;6.00;;
17790;SDS011;9019;48.132;-1.210;2023-05-08T09:16:02;9.52;;;6.85;;
17790;SDS011;9019;48.132;-1.210;2023-05-08T09:18:30;9.10;;;5.82;;
17790;SDS011;9019;48.132;-1.210;2023-05-08T09:20:58;6.22;;;5.63;;
17790;SDS011;9019;48.132;-1.210;2023-05-08T09:23:25;9.20;;;5.68;;
17790;SDS011;9019;48.132;-1.210;2023-05-08T09:25:53;10.85;;;6.07;;
17790;SDS011;9019;48.132;-1.210;2023-05-08T09:28:20;7.68;;;5.97;;
17790;SDS011;9019;48.132;-1.210;2023-05-08T09:30:48;8.27;;;5.70;;
17790;SDS011;9019;48.132;-1.210;2023-05-08T09:33:16;8.52;;;5.55;;
17790;SDS011;9019;48.132;-1.210;2023-05-08T09:35:44;8.80;;;6.03;;
17790;SDS011;9019;48.132;-1.210;2023-05-08T09:38:31;7.35;;;5.50;;
17790;SDS011;9019;48.132;-1.210;2023-05-08T09:41:04;7.00;;;5.10;;
17790;SDS011;9019;48.132;-1.210;2023-05-08T09:43:32;6.78;;;5.43;;
17790;SDS011;9019;48.132;-1.210;2023-05-08T09:46:11;7.13;;;5.50;;
17790;SDS011;9019;48.132;-1.210;2023-05-08T09:48:45;5.45;;;4.93;;
17790;SDS011;9019;48.132;-1.210;2023-05-08T09:51:16;8.82;;;5.00;;
17790;SDS011;9019;48.132;-1.210;2023-05-08T09:53:43;5.82;;;5.00;;
17790;SDS011;9019;48.132;-1.210;2023-05-08T09:56:10;8.35;;;5.15;;
17790;SDS011;9019;48.132;-1.210;2023-05-08T09:58:38;5.68;;;4.10;;
17790;SDS011;9019;48.132;-1.210;2023-05-08T10:01:05;6.97;;;5.22;;
17790;SDS011;9019;48.132;-1.210;2023-05-08T10:03:45;7.22;;;4.63;;
17790;SDS011;9019;48.132;-1.210;2023-05-08T10:06:14;4.68;;;3.83;;
17790;SDS011;9019;48.132;-1.210;2023-05-08T10:08:42;6.20;;;4.55;;
17790;SDS011;9019;48.132;-1.210;2023-05-08T10:11:12;8.60;;;5.50;;
17790;SDS011;9019;48.132;-1.210;2023-05-08T10:13:41;5.63;;;4.00;;
17790;SDS011;9019;48.132;-1.210;2023-05-08T10:16:09;6.05;;;3.20;;
17790;SDS011;9019;48.132;-1.210;2023-05-08T10:18:37;4.93;;;3.60;;
17790;SDS011;9019;48.132;-1.210;2023-05-08T10:21:05;5.45;;;3.38;;
17790;SDS011;9019;48.132;-1.210;2023-05-08T10:23:35;4.43;;;2.55;;
17790;SDS011;9019;48.132;-1.210;2023-05-08T10:26:05;5.15;;;3.38;;
17790;SDS011;9019;48.132;-1.210;2023-05-08T10:28:36;3.90;;;2.92;;
17790;SDS011;9019;48.132;-1.210;2023-05-08T10:31:06;3.05;;;1.90;;
17790;SDS011;9019;48.132;-1.210;2023-05-08T10:33:34;2.60;;;1.90;;
17790;SDS011;9019;48.132;-1.210;2023-05-08T10:36:01;9.82;;;8.85;;
17790;SDS011;9019;48.132;-1.210;2023-05-08T10:38:29;4.22;;;3.00;;
17790;SDS011;9019;48.132;-1.210;2023-05-08T10:41:00;2.95;;;1.90;;
17790;SDS011;9019;48.132;-1.210;2023-05-08T10:43:27;3.25;;;2.80;;
17790;SDS011;9019;48.132;-1.210;2023-05-08T10:45:56;4.57;;;2.65;;
17790;SDS011;9019;48.132;-1.210;2023-05-08T10:48:25;4.00;;;2.40;;
17790;SDS011;9019;48.132;-1.210;2023-05-08T10:51:00;2.92;;;1.98;;
17790;SDS011;9019;48.132;-1.210;2023-05-08T10:53:30;1.90;;;1.45;;
17790;SDS011;9019;48.132;-1.210;2023-05-08T10:56:05;3.63;;;1.60;;
17790;SDS011;9019;48.132;-1.210;2023-05-08T10:58:34;2.58;;;1.80;;
17790;SDS011;9019;48.132;-1.210;2023-05-08T11:01:09;2.88;;;1.63;;
17790;SDS011;9019;48.132;-1.210;2023-05-08T11:03:37;4.18;;;1.58;;
17790;SDS011;9019;48.132;-1.210;2023-05-08T11:06:05;2.90;;;1.60;;
17790;SDS011;9019;48.132;-1.210;2023-05-08T11:08:33;2.38;;;1.67;;
17790;SDS011;9019;48.132;-1.210;2023-05-08T11:11:12;2.80;;;1.50;;
17790;SDS011;9019;48.132;-1.210;2023-05-08T11:13:40;3.67;;;1.70;;
17790;SDS011;9019;48.132;-1.210;2023-05-08T11:16:08;1.63;;;1.23;;
17790;SDS011;9019;48.132;-1.210;2023-05-08T11:18:35;2.22;;;1.38;;
17790;SDS011;9019;48.132;-1.210;2023-05-08T11:21:03;2.45;;;1.30;;
17790;SDS011;9019;48.132;-1.210;2023-05-08T11:23:31;3.13;;;1.30;;
17790;SDS011;9019;48.132;-1.210;2023-05-08T11:25:59;1.88;;;1.10;;
17790;SDS011;9019;48.132;-1.210;2023-05-08T11:28:28;1.90;;;1.02;;
17790;SDS011;9019;48.132;-1.210;2023-05-08T11:31:01;3.25;;;1.23;;
17790;SDS011;9019;48.132;-1.210;2023-05-08T11:33:28;2.35;;;1.20;;
17790;SDS011;9019;48.132;-1.210;2023-05-08T11:35:56;1.35;;;0.93;;
17790;SDS011;9019;48.132;-1.210;2023-05-08T11:38:25;1.30;;;1.15;;
17790;SDS011;9019;48.132;-1.210;2023-05-08T11:41:04;1.13;;;0.90;;
17790;SDS011;9019;48.132;-1.210;2023-05-08T11:46:16;1.80;;;1.30;;
17790;SDS011;9019;48.132;-1.210;2023-05-08T11:48:43;2.42;;;1.60;;
17790;SDS011;9019;48.132;-1.210;2023-05-08T11:51:11;1.80;;;1.38;;
17790;SDS011;9019;48.132;-1.210;2023-05-08T11:53:38;1.92;;;1.33;;
17790;SDS011;9019;48.132;-1.210;2023-05-08T11:56:06;2.30;;;1.33;;
17790;SDS011;9019;48.132;-1.210;2023-05-08T11:58:33;2.42;;;1.50;;
17790;SDS011;9019;48.132;-1.210;2023-05-08T12:01:01;2.78;;;1.50;;
17790;SDS011;9019;48.132;-1.210;2023-05-08T12:03:30;2.00;;;1.40;;
17790;SDS011;9019;48.132;-1.210;2023-05-08T12:05:57;3.13;;;1.80;;
17790;SDS011;9019;48.132;-1.210;2023-05-08T12:08:25;4.05;;;1.60;;
17790;SDS011;9019;48.132;-1.210;2023-05-08T12:10:53;2.83;;;1.63;;
17790;SDS011;9019;48.132;-1.210;2023-05-08T12:13:21;1.35;;;1.20;;
17790;SDS011;9019;48.132;-1.210;2023-05-08T12:15:49;2.72;;;1.63;;
17790;SDS011;9019;48.132;-1.210;2023-05-08T12:18:17;2.42;;;1.67;;
17790;SDS011;9019;48.132;-1.210;2023-05-08T12:20:45;6.50;;;1.90;;
17790;SDS011;9019;48.132;-1.210;2023-05-08T12:23:17;3.85;;;1.65;;
17790;SDS011;9019;48.132;-1.210;2023-05-08T12:25:44;2.30;;;1.40;;
17790;SDS011;9019;48.132;-1.210;2023-05-08T12:28:12;3.17;;;1.23;;
17790;SDS011;9019;48.132;-1.210;2023-05-08T12:30:39;3.75;;;1.40;;
17790;SDS011;9019;48.132;-1.210;2023-05-08T12:33:06;2.60;;;1.45;;
17790;SDS011;9019;48.132;-1.210;2023-05-08T12:35:34;2.90;;;1.60;;
17790;SDS011;9019;48.132;-1.210;2023-05-08T12:38:04;2.72;;;1.20;;
17790;SDS011;9019;48.132;-1.210;2023-05-08T12:40:33;3.67;;;1.65;;
17790;SDS011;9019;48.132;-1.210;2023-05-08T12:43:01;1.63;;;1.23;;
17790;SDS011;9019;48.132;-1.210;2023-05-08T12:45:29;3.72;;;1.55;;
17790;SDS011;9019;48.132;-1.210;2023-05-08T12:47:58;3.58;;;1.30;;
17790;SDS011;9019;48.132;-1.210;2023-05-08T12:50:26;2.67;;;1.50;;
17790;SDS011;9019;48.132;-1.210;2023-05-08T12:52:54;2.17;;;1.40;;
17790;SDS011;9019;48.132;-1.210;2023-05-08T12:55:29;3.47;;;1.48;;
17790;SDS011;9019;48.132;-1.210;2023-05-08T12:58:00;2.13;;;1.40;;
17790;SDS011;9019;48.132;-1.210;2023-05-08T13:00:34;3.38;;;2.10;;
17790;SDS011;9019;48.132;-1.210;2023-05-08T13:03:02;2.60;;;1.65;;
17790;SDS011;9019;48.132;-1.210;2023-05-08T13:05:30;3.03;;;1.70;;
17790;SDS011;9019;48.132;-1.210;2023-05-08T13:08:00;4.18;;;2.63;;
17790;SDS011;9019;48.132;-1.210;2023-05-08T13:10:45;5.13;;;2.85;;
17790;SDS011;9019;48.132;-1.210;2023-05-08T13:13:12;2.83;;;1.98;;
17790;SDS011;9019;48.132;-1.210;2023-05-08T13:15:40;2.92;;;2.00;;
17790;SDS011;9019;48.132;-1.210;2023-05-08T13:18:07;2.72;;;1.83;;
17790;SDS011;9019;48.132;-1.210;2023-05-08T13:20:34;3.50;;;2.53;;
17790;SDS011;9019;48.132;-1.210;2023-05-08T13:23:02;3.80;;;1.65;;
17790;SDS011;9019;48.132;-1.210;2023-05-08T13:25:29;3.00;;;1.80;;
17790;SDS011;9019;48.132;-1.210;2023-05-08T13:27:58;4.65;;;2.20;;
17790;SDS011;9019;48.132;-1.210;2023-05-08T13:30:25;3.35;;;2.35;;
17790;SDS011;9019;48.132;-1.210;2023-05-08T13:32:53;5.88;;;2.00;;
17790;SDS011;9019;48.132;-1.210;2023-05-08T13:35:20;5.93;;;3.35;;
17790;SDS011;9019;48.132;-1.210;2023-05-08T13:37:47;4.53;;;1.70;;
17790;SDS011;9019;48.132;-1.210;2023-05-08T13:40:15;5.68;;;2.63;;
17790;SDS011;9019;48.132;-1.210;2023-05-08T13:42:42;4.57;;;1.90;;
17790;SDS011;9019;48.132;-1.210;2023-05-08T13:45:11;3.45;;;1.77;;
17790;SDS011;9019;48.132;-1.210;2023-05-08T13:47:39;5.38;;;2.10;;
17790;SDS011;9019;48.132;-1.210;2023-05-08T13:50:07;3.30;;;1.67;;
17790;SDS011;9019;48.132;-1.210;2023-05-08T13:52:34;3.85;;;2.03;;
17790;SDS011;9019;48.132;-1.210;2023-05-08T13:55:02;5.32;;;2.10;;
17790;SDS011;9019;48.132;-1.210;2023-05-08T13:57:29;3.53;;;1.88;;
17790;SDS011;9019;48.132;-1.210;2023-05-08T13:59:57;3.75;;;1.90;;
17790;SDS011;9019;48.132;-1.210;2023-05-08T14:02:25;5.75;;;2.08;;
17790;SDS011;9019;48.132;-1.210;2023-05-08T14:04:52;3.50;;;1.80;;
17790;SDS011;9019;48.132;-1.210;2023-05-08T14:07:20;3.73;;;2.20;;
17790;SDS011;9019;48.132;-1.210;2023-05-08T14:09:47;4.70;;;2.38;;
17790;SDS011;9019;48.132;-1.210;2023-05-08T14:12:14;5.15;;;2.20;;
17790;SDS011;9019;48.132;-1.210;2023-05-08T14:14:42;5.70;;;1.67;;
17790;SDS011;9019;48.132;-1.210;2023-05-08T14:17:09;4.18;;;1.90;;
17790;SDS011;9019;48.132;-1.210;2023-05-08T14:19:37;3.67;;;1.90;;
17790;SDS011;9019;48.132;-1.210;2023-05-08T14:22:05;5.90;;;1.83;;
17790;SDS011;9019;48.132;-1.210;2023-05-08T14:24:32;5.40;;;1.90;;
17790;SDS011;9019;48.132;-1.210;2023-05-08T14:27:00;5.40;;;1.90;;
17790;SDS011;9019;48.132;-1.210;2023-05-08T14:29:30;4.38;;;1.52;;
17790;SDS011;9019;48.132;-1.210;2023-05-08T14:31:57;2.88;;;1.75;;
17790;SDS011;9019;48.132;-1.210;2023-05-08T14:34:24;3.95;;;1.45;;
17790;SDS011;9019;48.132;-1.210;2023-05-08T14:36:52;4.78;;;1.90;;
17790;SDS011;9019;48.132;-1.210;2023-05-08T14:39:20;5.57;;;2.30;;
17790;SDS011;9019;48.132;-1.210;2023-05-08T14:41:47;4.88;;;2.15;;
17790;SDS011;9019;48.132;-1.210;2023-05-08T14:44:14;5.90;;;2.33;;
17790;SDS011;9019;48.132;-1.210;2023-05-08T14:46:42;4.95;;;2.13;;
17790;SDS011;9019;48.132;-1.210;2023-05-08T14:49:09;4.38;;;2.03;;
17790;SDS011;9019;48.132;-1.210;2023-05-08T14:51:36;6.38;;;1.80;;
17790;SDS011;9019;48.132;-1.210;2023-05-08T14:54:05;3.88;;;1.70;;
17790;SDS011;9019;48.132;-1.210;2023-05-08T14:56:32;4.05;;;1.70;;
17790;SDS011;9019;48.132;-1.210;2023-05-08T14:58:59;5.45;;;1.92;;
17790;SDS011;9019;48.132;-1.210;2023-05-08T15:01:26;4.38;;;2.00;;
17790;SDS011;9019;48.132;-1.210;2023-05-08T15:03:54;5.47;;;2.00;;
17790;SDS011;9019;48.132;-1.210;2023-05-08T15:06:22;4.07;;;1.67;;
17790;SDS011;9019;48.132;-1.210;2023-05-08T15:08:51;6.32;;;2.05;;